createdAt,value
2019-01-10T00:01:30.268Z,3.40
2019-01-10T00:04:11.532Z,4.10
2019-01-10T00:06:52.700Z,4.25
2019-01-10T00:09:33.436Z,4.45
2019-01-10T00:12:13.839Z,4.00
2019-01-10T00:14:54.584Z,7.60
2019-01-10T00:17:35.194Z,4.20
2019-01-10T00:20:15.916Z,4.33
2019-01-10T00:22:56.388Z,5.75
2019-01-10T00:25:37.288Z,6.28
2019-01-10T00:28:19.256Z,4.45
2019-01-10T00:31:00.240Z,5.25
2019-01-10T00:33:40.794Z,6.90
2019-01-10T00:36:21.663Z,5.45
2019-01-10T00:39:02.652Z,4.30
2019-01-10T00:41:43.047Z,9.25
2019-01-10T00:44:23.733Z,9.33
2019-01-10T00:47:04.383Z,25.40
2019-01-10T00:49:45.104Z,9.23
2019-01-10T00:52:25.592Z,21.48
2019-01-10T00:55:06.439Z,6.95
2019-01-10T00:57:48.299Z,6.05
2019-01-10T01:00:28.919Z,9.35
2019-01-10T01:03:09.787Z,5.53
2019-01-10T01:05:50.266Z,4.50
2019-01-10T01:08:30.979Z,4.67
2019-01-10T01:11:11.388Z,5.00
2019-01-10T01:13:52.103Z,2.42
2019-01-10T01:16:32.547Z,4.35
2019-01-10T01:19:13.305Z,3.60
2019-01-10T01:21:54.351Z,4.45
2019-01-10T01:24:35.623Z,4.80
2019-01-10T01:27:16.104Z,3.62
2019-01-10T01:29:56.647Z,4.17
2019-01-10T01:32:37.296Z,5.50
2019-01-10T01:35:18.127Z,4.00
2019-01-10T01:37:58.812Z,4.37
2019-01-10T01:40:39.338Z,4.50
2019-01-10T01:43:20.049Z,3.77
2019-01-10T01:46:00.768Z,5.30
2019-01-10T01:48:41.200Z,4.05
2019-01-10T01:51:21.995Z,3.83
2019-01-10T01:54:02.467Z,2.75
2019-01-10T01:56:43.016Z,4.40
2019-01-10T01:59:23.668Z,4.62
2019-01-10T02:02:04.367Z,4.80
2019-01-10T02:04:45.072Z,4.78
2019-01-10T02:07:25.695Z,4.97
2019-01-10T02:10:06.288Z,4.47
2019-01-10T02:12:50.894Z,3.60
2019-01-10T02:15:31.908Z,4.50
2019-01-10T02:18:12.488Z,3.95
2019-01-10T02:20:53.268Z,4.67
2019-01-10T02:23:33.918Z,6.72
2019-01-10T02:26:14.608Z,5.40
2019-01-10T02:28:55.152Z,7.08
2019-01-10T02:31:36.037Z,6.78
2019-01-10T02:34:16.795Z,8.15
2019-01-10T02:36:57.211Z,3.70
2019-01-10T02:39:37.911Z,13.18
2019-01-10T02:42:18.615Z,6.10
2019-01-10T02:44:59.199Z,5.80
2019-01-10T02:47:40.260Z,4.50
2019-01-10T02:50:21.073Z,7.37
2019-01-10T02:53:01.660Z,4.95
2019-01-10T02:55:42.330Z,8.13
2019-01-10T02:58:23.166Z,6.72
2019-01-10T03:01:04.116Z,15.63
2019-01-10T03:03:44.897Z,7.60
2019-01-10T03:06:27.029Z,8.45
2019-01-10T03:09:07.979Z,10.53
2019-01-10T03:11:48.332Z,7.70
2019-01-10T03:14:28.927Z,9.70
2019-01-10T03:17:09.451Z,8.75
2019-01-10T03:19:50.247Z,5.28
2019-01-10T03:22:31.196Z,10.50
2019-01-10T03:25:11.545Z,8.80
2019-01-10T03:27:52.116Z,6.67
2019-01-10T03:30:32.869Z,8.85
2019-01-10T03:33:13.450Z,7.37
2019-01-10T03:35:54.184Z,7.03
2019-01-10T03:38:34.956Z,5.28
2019-01-10T03:41:15.538Z,8.05
2019-01-10T03:43:57.823Z,6.78
2019-01-10T03:46:38.804Z,6.35
2019-01-10T03:49:19.632Z,9.48
2019-01-10T03:52:00.276Z,12.85
2019-01-10T03:54:40.685Z,8.53
2019-01-10T03:57:21.207Z,9.93
2019-01-10T04:00:01.897Z,11.10
2019-01-10T04:02:42.704Z,8.25
2019-01-10T04:05:23.464Z,13.35
2019-01-10T04:08:04.249Z,5.53
2019-01-10T04:10:44.963Z,7.50
2019-01-10T04:13:25.676Z,7.03
2019-01-10T04:16:06.351Z,6.90
2019-01-10T04:18:46.947Z,5.90
2019-01-10T04:21:27.728Z,4.30
2019-01-10T04:24:08.292Z,7.05
2019-01-10T04:26:48.895Z,7.17
2019-01-10T04:29:29.574Z,3.50
2019-01-10T04:32:10.468Z,5.80
2019-01-10T04:34:51.212Z,4.15
2019-01-10T04:37:31.680Z,4.87
2019-01-10T04:40:12.356Z,5.20
2019-01-10T04:42:53.001Z,3.92
2019-01-10T04:48:46.920Z,5.50
2019-01-10T04:51:27.499Z,2.87
2019-01-10T04:54:08.240Z,5.03
2019-01-10T04:56:48.932Z,5.22
2019-01-10T04:59:29.924Z,4.00
2019-01-10T05:02:18.306Z,3.22
2019-01-10T05:04:53.433Z,4.35
2019-01-10T05:07:34.160Z,6.10
2019-01-10T05:10:14.951Z,4.60
2019-01-10T05:12:55.801Z,7.42
2019-01-10T05:15:38.222Z,4.40
2019-01-10T05:18:19.284Z,3.12
2019-01-10T05:20:59.827Z,4.50
2019-01-10T05:23:40.488Z,7.53
2019-01-10T05:26:21.186Z,3.47
2019-01-10T05:29:01.696Z,2.27
2019-01-10T05:31:30.475Z,5.15
2019-01-10T05:34:18.552Z,3.10
2019-01-10T05:40:32.862Z,2.95
2019-01-10T05:43:20.883Z,2.60
2019-01-10T05:46:08.879Z,3.05
2019-01-10T05:48:56.871Z,2.83
2019-01-10T05:51:44.940Z,2.45
2019-01-10T05:54:25.589Z,4.92
2019-01-10T05:57:06.363Z,3.77
2019-01-10T05:59:47.191Z,3.83
2019-01-10T06:02:27.897Z,5.05
2019-01-10T06:05:10.575Z,5.17
2019-01-10T06:07:51.608Z,4.50
2019-01-10T06:10:32.244Z,5.58
2019-01-10T06:13:01.043Z,3.15
2019-01-10T06:15:49.043Z,3.65
2019-01-10T06:21:44.151Z,9.68
2019-01-10T06:27:26.399Z,2.55
2019-01-10T06:30:15.857Z,2.80
2019-01-10T06:33:03.919Z,2.72
2019-01-10T06:35:51.920Z,2.80
2019-01-10T06:38:39.915Z,3.80
2019-01-10T06:41:27.988Z,2.50
2019-01-10T06:44:16.084Z,2.00
2019-01-10T06:47:04.155Z,2.55
2019-01-10T06:49:52.160Z,2.20
2019-01-10T06:52:40.152Z,2.92
2019-01-10T06:55:20.578Z,2.90
2019-01-10T06:58:01.304Z,3.62
2019-01-10T07:00:42.091Z,2.37
2019-01-10T07:03:22.811Z,2.55
2019-01-10T07:06:03.297Z,4.10
2019-01-10T07:08:44.078Z,3.45
2019-01-10T07:11:24.656Z,3.47
2019-01-10T07:14:05.132Z,3.77
2019-01-10T07:16:53.532Z,3.70
2019-01-10T07:22:34.280Z,2.83
2019-01-10T07:25:15.218Z,2.92
2019-01-10T07:27:56.739Z,4.50
2019-01-10T07:30:37.377Z,2.00
2019-01-10T07:33:18.079Z,3.58
2019-01-10T07:35:58.511Z,4.50
2019-01-10T07:38:38.963Z,2.02
2019-01-10T07:41:19.724Z,2.58
2019-01-10T07:44:00.278Z,2.60
2019-01-10T07:46:41.148Z,3.55
2019-01-10T07:49:21.661Z,3.05
2019-01-10T07:52:02.520Z,2.33
2019-01-10T07:54:43.052Z,2.58
2019-01-10T07:57:24.012Z,4.42
2019-01-10T08:00:04.867Z,3.27
2019-01-10T08:02:46.199Z,3.95
2019-01-10T08:05:26.740Z,2.67
2019-01-10T08:08:07.375Z,3.05
2019-01-10T08:10:48.091Z,3.15
2019-01-10T08:13:28.673Z,2.42
2019-01-10T08:16:09.415Z,2.05
2019-01-10T08:18:51.439Z,2.22
2019-01-10T08:21:31.975Z,2.10
2019-01-10T08:26:55.118Z,2.25
2019-01-10T08:29:35.424Z,2.20
2019-01-10T08:32:16.167Z,2.35
2019-01-10T08:34:56.572Z,3.20
2019-01-10T08:37:37.364Z,2.08
2019-01-10T08:40:17.879Z,4.17
2019-01-10T08:42:58.591Z,2.80
2019-01-10T08:45:39.416Z,1.85
2019-01-10T08:48:19.928Z,1.60
2019-01-10T08:51:00.607Z,1.90
2019-01-10T08:53:41.072Z,2.20
2019-01-10T08:56:21.792Z,2.58
2019-01-10T08:59:02.563Z,2.05
2019-01-10T09:01:43.367Z,3.27
2019-01-10T09:04:23.987Z,2.67
2019-01-10T09:07:04.868Z,5.03
2019-01-10T09:09:45.479Z,3.42
2019-01-10T09:12:26.181Z,3.00
2019-01-10T09:15:07.568Z,3.00
2019-01-10T09:17:48.035Z,3.33
2019-01-10T09:20:28.756Z,2.75
2019-01-10T09:23:09.487Z,3.30
2019-01-10T09:25:50.132Z,1.85
2019-01-10T09:28:18.995Z,3.37
2019-01-10T09:31:07.052Z,3.08
2019-01-10T09:33:55.056Z,3.42
2019-01-10T09:36:43.043Z,2.72
2019-01-10T09:39:31.047Z,2.15
2019-01-10T09:42:19.043Z,2.40
2019-01-10T09:45:07.506Z,3.00
2019-01-10T09:47:55.515Z,1.70
2019-01-10T09:50:43.512Z,1.85
2019-01-10T09:53:31.587Z,3.67
2019-01-10T09:56:12.407Z,1.82
2019-01-10T09:58:53.119Z,3.65
2019-01-10T10:01:33.817Z,3.45
2019-01-10T10:04:14.227Z,4.78
2019-01-10T10:06:54.823Z,2.47
2019-01-10T10:09:35.307Z,2.52
2019-01-10T10:12:15.983Z,2.40
2019-01-10T10:14:56.423Z,4.47
2019-01-10T10:17:37.035Z,2.98
2019-01-10T10:20:18.015Z,3.12
2019-01-10T10:22:59.183Z,3.08
2019-01-10T10:25:39.672Z,2.70
2019-01-10T10:28:20.380Z,3.08
2019-01-10T10:31:01.141Z,2.70
2019-01-10T10:33:41.946Z,3.72
2019-01-10T10:36:22.616Z,4.20
2019-01-10T10:39:04.039Z,3.95
2019-01-10T10:41:45.131Z,5.30
2019-01-10T10:44:25.933Z,2.95
2019-01-10T10:47:06.635Z,2.40
2019-01-10T10:49:47.351Z,2.10
2019-01-10T10:52:28.116Z,1.55
2019-01-10T10:55:08.623Z,1.85
2019-01-10T10:57:49.378Z,2.35
2019-01-10T11:00:30.215Z,1.60
2019-01-10T11:03:10.647Z,1.80
2019-01-10T11:05:51.481Z,2.15
2019-01-10T11:08:31.791Z,1.50
2019-01-10T11:11:12.691Z,1.80
2019-01-10T11:13:53.439Z,2.20
2019-01-10T11:16:34.087Z,2.30
2019-01-10T11:19:14.759Z,2.08
2019-01-10T11:21:55.455Z,2.55
2019-01-10T11:24:35.835Z,2.47
2019-01-10T11:27:16.520Z,2.45
2019-01-10T11:29:57.323Z,3.12
2019-01-10T11:32:38.016Z,5.35
2019-01-10T11:35:18.548Z,2.47
2019-01-10T11:37:59.034Z,3.52
2019-01-10T11:40:39.800Z,2.17
2019-01-10T11:43:20.351Z,3.22
2019-01-10T11:46:01.046Z,3.08
2019-01-10T11:48:41.559Z,3.05
2019-01-10T11:51:22.367Z,4.22
2019-01-10T11:54:04.548Z,2.55
2019-01-10T11:56:45.859Z,3.37
2019-01-10T11:59:27.543Z,2.52
2019-01-10T12:02:08.387Z,2.22
2019-01-10T12:04:49.032Z,2.60
2019-01-10T12:07:29.444Z,2.77
2019-01-10T12:10:09.896Z,2.27
2019-01-10T12:12:50.611Z,2.85
2019-01-10T12:15:31.139Z,2.92
2019-01-10T12:18:11.935Z,2.58
2019-01-10T12:20:52.475Z,2.80
2019-01-10T12:23:32.901Z,2.58
2019-01-10T12:26:13.401Z,2.60
2019-01-10T12:28:54.067Z,1.80
2019-01-10T12:31:34.655Z,2.17
2019-01-10T12:34:15.228Z,2.25
2019-01-10T12:37:00.504Z,1.80
2019-01-10T12:39:38.548Z,1.90
2019-01-10T12:42:18.999Z,2.10
2019-01-10T12:44:59.654Z,2.20
2019-01-10T12:47:40.344Z,2.25
2019-01-10T12:50:21.024Z,3.92
2019-01-10T12:53:01.579Z,2.65
2019-01-10T12:55:42.336Z,2.52
2019-01-10T12:58:22.839Z,2.75
2019-01-10T13:01:03.345Z,2.08
2019-01-10T13:03:44.211Z,2.65
2019-01-10T13:06:25.075Z,5.85
2019-01-10T13:09:07.693Z,2.60
2019-01-10T13:11:48.591Z,2.90
2019-01-10T13:14:29.618Z,1.90
2019-01-10T13:17:10.276Z,2.45
2019-01-10T13:19:50.721Z,2.60
2019-01-10T13:22:31.592Z,2.15
2019-01-10T13:25:12.367Z,3.55
2019-01-10T13:27:53.230Z,3.37
2019-01-10T13:30:34.011Z,5.42
2019-01-10T13:33:14.840Z,5.45
2019-01-10T13:35:55.591Z,4.70
2019-01-10T13:38:36.267Z,4.97
2019-01-10T13:41:17.168Z,4.70
2019-01-10T13:43:57.803Z,5.15
2019-01-10T13:46:38.559Z,3.80
2019-01-10T13:49:19.112Z,4.80
2019-01-10T13:52:00.111Z,5.25
2019-01-10T13:54:40.660Z,3.92
2019-01-10T13:57:21.474Z,3.00
2019-01-10T14:00:02.008Z,2.62
2019-01-10T14:02:42.514Z,4.37
2019-01-10T14:05:23.465Z,6.92
2019-01-10T14:08:04.243Z,4.12
2019-01-10T14:10:46.496Z,3.55
2019-01-10T14:13:26.932Z,5.28
2019-01-10T14:16:07.570Z,3.30
2019-01-10T14:18:48.279Z,3.08
2019-01-10T14:21:29.056Z,3.10
2019-01-10T14:24:09.572Z,2.52
2019-01-10T14:26:50.237Z,2.85
2019-01-10T14:29:31.124Z,2.33
2019-01-10T14:32:11.791Z,2.10
2019-01-10T14:34:52.343Z,1.62
2019-01-10T14:37:32.988Z,2.70
2019-01-10T14:40:13.591Z,2.02
2019-01-10T14:42:54.559Z,2.15
2019-01-10T14:45:37.273Z,2.47
2019-01-10T14:48:17.941Z,2.00
2019-01-10T14:50:58.487Z,1.98
2019-01-10T14:53:39.048Z,2.50
2019-01-10T14:56:20.264Z,2.60
2019-01-10T14:59:00.956Z,2.08
2019-01-10T15:01:41.388Z,2.12
2019-01-10T15:04:21.946Z,2.55
2019-01-10T15:07:02.528Z,2.42
2019-01-10T15:09:43.247Z,2.30
2019-01-10T15:12:23.732Z,3.90
2019-01-10T15:15:04.875Z,2.65
2019-01-10T15:17:45.531Z,2.60
2019-01-10T15:20:26.121Z,2.45
2019-01-10T15:23:08.071Z,3.30
2019-01-10T15:25:49.188Z,3.55
2019-01-10T15:28:29.648Z,3.30
2019-01-10T15:31:09.975Z,3.15
2019-01-10T15:33:53.736Z,3.40
2019-01-10T15:36:34.369Z,2.62
2019-01-10T15:39:15.100Z,4.42
2019-01-10T15:41:55.583Z,4.10
2019-01-10T15:44:36.182Z,4.87
2019-01-10T15:47:19.868Z,4.47
2019-01-10T15:49:59.652Z,5.83
2019-01-10T15:52:39.996Z,5.83
2019-01-10T15:55:20.696Z,7.00
2019-01-10T15:58:01.373Z,5.62
2019-01-10T16:00:41.879Z,6.62
2019-01-10T16:03:22.790Z,4.97
2019-01-10T16:06:03.500Z,5.53
2019-01-10T16:08:45.133Z,5.80
2019-01-10T16:11:25.647Z,5.70
2019-01-10T16:14:06.211Z,6.60
2019-01-10T16:16:46.912Z,5.00
2019-01-10T16:19:27.631Z,5.47
2019-01-10T16:22:08.299Z,5.33
2019-01-10T16:24:49.208Z,6.90
2019-01-10T16:27:30.312Z,6.35
2019-01-10T16:30:11.105Z,6.15
2019-01-10T16:32:51.749Z,7.37
2019-01-10T16:35:32.639Z,6.70
2019-01-10T16:38:13.191Z,8.53
2019-01-10T16:40:54.090Z,8.28
2019-01-10T16:43:34.583Z,6.40
2019-01-10T16:46:15.571Z,6.62
2019-01-10T16:48:56.376Z,10.03
2019-01-10T16:51:36.843Z,5.87
2019-01-10T16:54:17.564Z,6.97
2019-01-10T16:56:58.087Z,7.90
2019-01-10T16:59:38.900Z,6.72
2019-01-10T17:02:19.665Z,7.08
2019-01-10T17:05:00.471Z,9.50
2019-01-10T17:07:41.072Z,6.90
2019-01-10T17:10:21.679Z,7.40
2019-01-10T17:13:02.459Z,8.90
2019-01-10T17:15:42.990Z,7.55
2019-01-10T17:18:24.939Z,7.83
2019-01-10T17:21:06.418Z,7.42
2019-01-10T17:23:46.912Z,6.95
2019-01-10T17:26:27.879Z,7.20
2019-01-10T17:29:08.792Z,6.30
2019-01-10T17:31:49.312Z,6.60
2019-01-10T17:34:29.935Z,6.75
2019-01-10T17:37:10.357Z,7.47
2019-01-10T17:39:51.304Z,9.10
2019-01-10T17:42:33.106Z,7.97
2019-01-10T17:45:15.201Z,7.55
2019-01-10T17:47:56.015Z,6.97
2019-01-10T17:50:36.948Z,6.42
2019-01-10T17:53:17.479Z,7.67
2019-01-10T17:55:58.725Z,7.50
2019-01-10T17:58:39.826Z,8.38
2019-01-10T18:01:20.517Z,9.05
2019-01-10T18:04:01.838Z,8.55
2019-01-10T18:06:42.989Z,9.18
2019-01-10T18:09:23.863Z,9.03
2019-01-10T18:12:04.575Z,8.98
2019-01-10T18:14:45.265Z,8.68
2019-01-10T18:17:26.134Z,9.05
2019-01-10T18:20:07.805Z,8.00
2019-01-10T18:22:48.923Z,8.88
2019-01-10T18:25:29.643Z,8.05
2019-01-10T18:28:10.381Z,8.63
2019-01-10T18:30:50.968Z,8.48
2019-01-10T18:33:31.700Z,9.10
2019-01-10T18:36:12.608Z,8.63
2019-01-10T18:38:53.351Z,9.40
2019-01-10T18:41:34.189Z,9.25
2019-01-10T18:44:14.953Z,8.58
2019-01-10T18:46:55.594Z,9.65
2019-01-10T18:49:36.360Z,9.20
2019-01-10T18:52:17.607Z,8.43
2019-01-10T18:55:00.284Z,8.10
2019-01-10T18:57:40.697Z,7.83
2019-01-10T19:00:21.486Z,7.65
2019-01-10T19:03:02.166Z,8.25
2019-01-10T19:05:42.950Z,11.73
2019-01-10T19:08:23.619Z,9.03
2019-01-10T19:11:04.116Z,8.78
2019-01-10T19:13:44.935Z,9.00
2019-01-10T19:16:25.812Z,8.03
2019-01-10T19:19:06.363Z,9.38
2019-01-10T19:21:46.851Z,7.80
2019-01-10T19:24:27.484Z,7.97
2019-01-10T19:27:08.186Z,8.30
2019-01-10T19:29:48.936Z,9.25
2019-01-10T19:32:29.595Z,8.55
2019-01-10T19:35:10.200Z,8.13
2019-01-10T19:37:50.892Z,7.47
2019-01-10T19:40:31.463Z,8.28
2019-01-10T19:43:12.463Z,9.73
2019-01-10T19:45:53.879Z,7.60
2019-01-10T19:48:34.803Z,8.43
2019-01-10T19:51:15.328Z,8.58
2019-01-10T19:53:55.981Z,8.25
2019-01-10T19:56:36.815Z,8.10
2019-01-10T19:59:17.459Z,7.25
2019-01-10T20:01:58.164Z,7.72
2019-01-10T20:04:39.010Z,9.15
2019-01-10T20:07:20.039Z,8.43
2019-01-10T20:10:00.761Z,8.10
2019-01-10T20:12:41.587Z,7.80
2019-01-10T20:15:22.259Z,7.08
2019-01-10T20:18:03.379Z,9.35
2019-01-10T20:20:43.963Z,8.08
2019-01-10T20:23:25.251Z,8.58
2019-01-10T20:26:06.130Z,7.75
2019-01-10T20:28:47.089Z,7.78
2019-01-10T20:31:27.853Z,7.10
2019-01-10T20:34:08.586Z,8.33
2019-01-10T20:36:49.662Z,8.20
2019-01-10T20:39:30.079Z,8.60
2019-01-10T20:42:10.780Z,7.95
2019-01-10T20:44:51.593Z,10.32
2019-01-10T20:47:32.295Z,7.95
2019-01-10T20:50:13.020Z,7.45
2019-01-10T20:52:53.631Z,7.95
2019-01-10T20:55:34.699Z,7.58
2019-01-10T20:58:15.264Z,8.73
2019-01-10T21:00:57.460Z,8.90
2019-01-10T21:03:38.514Z,9.03
2019-01-10T21:06:19.249Z,8.83
2019-01-10T21:08:59.837Z,8.50
2019-01-10T21:11:40.773Z,8.50
2019-01-10T21:14:21.513Z,10.75
2019-01-10T21:17:02.101Z,8.88
2019-01-10T21:19:45.236Z,9.55
2019-01-10T21:22:26.331Z,10.05
2019-01-10T21:25:08.071Z,11.80
2019-01-10T21:27:48.637Z,11.43
2019-01-10T21:30:29.296Z,10.10
2019-01-10T21:33:10.027Z,10.70
2019-01-10T21:35:50.627Z,10.88
2019-01-10T21:38:31.337Z,9.98
2019-01-10T21:41:12.202Z,10.75
2019-01-10T21:43:52.804Z,14.28
2019-01-10T21:46:33.543Z,13.72
2019-01-10T21:49:14.245Z,12.03
2019-01-10T21:51:55.121Z,11.75
2019-01-10T21:54:37.481Z,12.23
2019-01-10T21:57:19.149Z,11.73
2019-01-10T22:00:00.420Z,10.68
2019-01-10T22:02:41.448Z,12.23
2019-01-10T22:05:22.371Z,13.62
2019-01-10T22:08:04.823Z,10.05
2019-01-10T22:10:45.774Z,11.90
2019-01-10T22:13:26.417Z,11.73
2019-01-10T22:16:07.010Z,12.10
2019-01-10T22:18:47.664Z,11.22
2019-01-10T22:21:28.389Z,13.00
2019-01-10T22:24:09.551Z,12.53
2019-01-10T22:26:50.430Z,14.45
2019-01-10T22:29:31.422Z,13.20
2019-01-10T22:32:12.651Z,13.78
2019-01-10T22:34:53.923Z,13.35
2019-01-10T22:37:34.833Z,14.47
2019-01-10T22:40:15.983Z,12.98
2019-01-10T22:42:57.101Z,13.32
2019-01-10T22:45:37.665Z,13.32
2019-01-10T22:48:37.325Z,14.65
2019-01-10T22:51:19.095Z,13.28
2019-01-10T22:54:07.292Z,17.57
2019-01-10T22:56:48.324Z,14.13
2019-01-10T23:11:49.864Z,16.93
2019-01-10T23:14:49.924Z,14.20
2019-01-10T23:23:50.875Z,15.35
2019-01-10T23:33:06.959Z,15.93
2019-01-10T23:35:53.156Z,15.50
2019-01-10T23:38:37.324Z,17.55
2019-01-10T23:41:37.124Z,15.95
2019-01-10T23:44:28.350Z,17.45
2019-01-10T23:53:31.836Z,19.07
2019-01-10T23:56:47.181Z,14.90
